Main page
METAR-TAF:

METAR-TAF

Airports :

Faro Airport

Faro, Portugal

latitude: 37-01N, longitude: 007-58W, elevation: 7 m

Current weather observation

The report was made 29 minutes ago, at 03:30 UTC
Wind 5 kt from the North
Temperature 12°C
Humidity 94%
Pressure 1023 hPa
Visibility 10 km or more
no clouds below 1500 m and no cumulonimbus

METAR: LPFR 270330Z 01005KT CAVOK 12/11 Q1023

Time: 03:59 (03:59 UTC)

Forecast

The report was made 4 hours and 59 minutes ago, at 23:00 UTC
Forecast valid from 27 at 00 UTC to 27 at 24 UTC
Wind 5 kt from the Northeast
Visibility 10 km or more
Few clouds at a height of 2000 ft
Becoming
from 27 at 07 UTC to 27 at 10 UTC
Wind 10 kt from the East
Becoming
from 27 at 12 UTC to 27 at 15 UTC
Wind 8 kt from the Southeast
Becoming
from 27 at 18 UTC to 27 at 20 UTC
Wind 2 kt from variable directions

TAF: LPFR 262300Z 2700/2724 04005KT 9999 FEW020 BECMG 2707/2710 08010KT BECMG 2712/2715 13008KT BECMG 2718/2720 VRB02KT

Weather observations and forecasts of more than 4000 airports (METAR and TAF reports).

The available stations are represented by yellow and red dots on the map.

Hover mouse over dot to see the name of the station.

Then click to see weather observations and forecasts.

To change the map : click on the green buttons with a black cross to zoom in, on the green button with a dash to zoom out, or on the green arrows for adjacent maps.


METAR-TAF: